sensor_id;sensor_type;location;lat;lon;timestamp;P1;durP1;ratioP1;P2;durP2;ratioP2
80115;SDS011;69423;47.608;19.366;2024-03-02T00:00:06;42.97;;;41.63;;
80115;SDS011;69423;47.608;19.366;2024-03-02T00:00:44;43.57;;;42.40;;
80115;SDS011;69423;47.608;19.366;2024-03-02T00:01:19;42.70;;;41.57;;
80115;SDS011;69423;47.608;19.366;2024-03-02T00:01:50;42.73;;;41.43;;
80115;SDS011;69423;47.608;19.366;2024-03-02T00:02:21;42.33;;;41.37;;
80115;SDS011;69423;47.608;19.366;2024-03-02T00:02:52;42.87;;;41.90;;
80115;SDS011;69423;47.608;19.366;2024-03-02T00:03:23;43.53;;;42.27;;
80115;SDS011;69423;47.608;19.366;2024-03-02T00:03:55;43.17;;;41.73;;
80115;SDS011;69423;47.608;19.366;2024-03-02T00:04:26;43.07;;;41.57;;
80115;SDS011;69423;47.608;19.366;2024-03-02T00:04:57;43.67;;;41.93;;
80115;SDS011;69423;47.608;19.366;2024-03-02T00:05:28;42.20;;;40.60;;
80115;SDS011;69423;47.608;19.366;2024-03-02T00:05:59;42.93;;;41.37;;
80115;SDS011;69423;47.608;19.366;2024-03-02T00:06:30;42.47;;;41.07;;
80115;SDS011;69423;47.608;19.366;2024-03-02T00:07:02;41.90;;;40.53;;
80115;SDS011;69423;47.608;19.366;2024-03-02T00:07:33;43.27;;;41.67;;
80115;SDS011;69423;47.608;19.366;2024-03-02T00:08:04;42.90;;;41.43;;
80115;SDS011;69423;47.608;19.366;2024-03-02T00:08:37;41.57;;;40.53;;
80115;SDS011;69423;47.608;19.366;2024-03-02T00:09:09;41.87;;;40.63;;
80115;SDS011;69423;47.608;19.366;2024-03-02T00:09:44;42.83;;;41.40;;
80115;SDS011;69423;47.608;19.366;2024-03-02T00:10:16;42.03;;;41.00;;
80115;SDS011;69423;47.608;19.366;2024-03-02T00:10:50;44.33;;;43.13;;
80115;SDS011;69423;47.608;19.366;2024-03-02T00:11:22;43.20;;;41.97;;
80115;SDS011;69423;47.608;19.366;2024-03-02T00:11:53;43.37;;;41.77;;
80115;SDS011;69423;47.608;19.366;2024-03-02T00:12:24;42.77;;;41.07;;
80115;SDS011;69423;47.608;19.366;2024-03-02T00:12:56;43.90;;;42.23;;
80115;SDS011;69423;47.608;19.366;2024-03-02T00:13:27;42.77;;;41.37;;
80115;SDS011;69423;47.608;19.366;2024-03-02T00:14:00;43.03;;;41.87;;
80115;SDS011;69423;47.608;19.366;2024-03-02T00:14:31;42.93;;;41.57;;
80115;SDS011;69423;47.608;19.366;2024-03-02T00:15:04;44.23;;;42.77;;
80115;SDS011;69423;47.608;19.366;2024-03-02T00:15:54;42.67;;;41.60;;
80115;SDS011;69423;47.608;19.366;2024-03-02T00:16:29;41.40;;;40.47;;
80115;SDS011;69423;47.608;19.366;2024-03-02T00:17:02;42.33;;;41.30;;
80115;SDS011;69423;47.608;19.366;2024-03-02T00:17:33;43.93;;;42.20;;
80115;SDS011;69423;47.608;19.366;2024-03-02T00:18:04;44.80;;;43.03;;
80115;SDS011;69423;47.608;19.366;2024-03-02T00:18:35;42.83;;;41.43;;
80115;SDS011;69423;47.608;19.366;2024-03-02T00:19:08;42.17;;;40.97;;
80115;SDS011;69423;47.608;19.366;2024-03-02T00:19:39;42.87;;;41.40;;
80115;SDS011;69423;47.608;19.366;2024-03-02T00:20:10;43.17;;;41.77;;
80115;SDS011;69423;47.608;19.366;2024-03-02T00:20:55;42.77;;;41.37;;
80115;SDS011;69423;47.608;19.366;2024-03-02T00:21:27;43.80;;;42.47;;
80115;SDS011;69423;47.608;19.366;2024-03-02T00:22:01;43.63;;;42.33;;
80115;SDS011;69423;47.608;19.366;2024-03-02T00:22:32;42.97;;;41.70;;
80115;SDS011;69423;47.608;19.366;2024-03-02T00:23:08;42.07;;;40.90;;
80115;SDS011;69423;47.608;19.366;2024-03-02T00:23:41;41.83;;;40.50;;
80115;SDS011;69423;47.608;19.366;2024-03-02T00:24:20;41.60;;;40.13;;
80115;SDS011;69423;47.608;19.366;2024-03-02T00:24:55;42.30;;;40.93;;
80115;SDS011;69423;47.608;19.366;2024-03-02T00:25:26;42.23;;;40.83;;
80115;SDS011;69423;47.608;19.366;2024-03-02T00:25:57;42.40;;;40.90;;
80115;SDS011;69423;47.608;19.366;2024-03-02T00:26:30;42.80;;;41.63;;
80115;SDS011;69423;47.608;19.366;2024-03-02T00:27:01;42.13;;;41.07;;
80115;SDS011;69423;47.608;19.366;2024-03-02T00:27:35;41.47;;;40.50;;
80115;SDS011;69423;47.608;19.366;2024-03-02T00:28:27;41.13;;;40.10;;
80115;SDS011;69423;47.608;19.366;2024-03-02T00:28:59;42.47;;;41.07;;
80115;SDS011;69423;47.608;19.366;2024-03-02T00:29:31;42.90;;;41.47;;
80115;SDS011;69423;47.608;19.366;2024-03-02T00:30:05;41.93;;;40.73;;
80115;SDS011;69423;47.608;19.366;2024-03-02T00:31:06;40.23;;;38.97;;
80115;SDS011;69423;47.608;19.366;2024-03-02T00:31:39;40.73;;;39.53;;
80115;SDS011;69423;47.608;19.366;2024-03-02T00:32:13;43.03;;;41.70;;
80115;SDS011;69423;47.608;19.366;2024-03-02T00:32:47;42.03;;;40.73;;
80115;SDS011;69423;47.608;19.366;2024-03-02T00:33:18;41.33;;;40.10;;
80115;SDS011;69423;47.608;19.366;2024-03-02T00:33:51;42.00;;;40.60;;
80115;SDS011;69423;47.608;19.366;2024-03-02T00:34:22;41.00;;;39.87;;
80115;SDS011;69423;47.608;19.366;2024-03-02T00:34:53;41.37;;;40.23;;
80115;SDS011;69423;47.608;19.366;2024-03-02T00:35:24;41.33;;;40.13;;
80115;SDS011;69423;47.608;19.366;2024-03-02T00:35:56;42.57;;;41.17;;
80115;SDS011;69423;47.608;19.366;2024-03-02T00:36:27;42.57;;;41.27;;
80115;SDS011;69423;47.608;19.366;2024-03-02T00:36:59;42.97;;;41.47;;
80115;SDS011;69423;47.608;19.366;2024-03-02T00:37:30;43.80;;;42.43;;
80115;SDS011;69423;47.608;19.366;2024-03-02T00:38:05;43.47;;;42.07;;
80115;SDS011;69423;47.608;19.366;2024-03-02T00:38:48;44.17;;;42.77;;
80115;SDS011;69423;47.608;19.366;2024-03-02T00:39:20;43.53;;;42.17;;
80115;SDS011;69423;47.608;19.366;2024-03-02T00:39:51;41.70;;;40.67;;
80115;SDS011;69423;47.608;19.366;2024-03-02T00:40:23;42.30;;;40.90;;
80115;SDS011;69423;47.608;19.366;2024-03-02T00:41:03;41.37;;;40.17;;
80115;SDS011;69423;47.608;19.366;2024-03-02T00:41:38;41.17;;;40.03;;
80115;SDS011;69423;47.608;19.366;2024-03-02T00:42:12;42.00;;;40.60;;
80115;SDS011;69423;47.608;19.366;2024-03-02T00:42:43;41.80;;;40.33;;
80115;SDS011;69423;47.608;19.366;2024-03-02T00:44:18;41.07;;;39.70;;
80115;SDS011;69423;47.608;19.366;2024-03-02T00:44:55;41.67;;;40.30;;
80115;SDS011;69423;47.608;19.366;2024-03-02T00:45:26;41.57;;;40.00;;
80115;SDS011;69423;47.608;19.366;2024-03-02T00:45:58;42.63;;;40.97;;
80115;SDS011;69423;47.608;19.366;2024-03-02T00:46:30;43.13;;;41.70;;
80115;SDS011;69423;47.608;19.366;2024-03-02T00:47:04;41.20;;;40.27;;
80115;SDS011;69423;47.608;19.366;2024-03-02T00:47:38;43.13;;;41.60;;
80115;SDS011;69423;47.608;19.366;2024-03-02T00:48:10;41.57;;;40.17;;
80115;SDS011;69423;47.608;19.366;2024-03-02T00:48:45;42.50;;;41.33;;
80115;SDS011;69423;47.608;19.366;2024-03-02T00:49:23;42.67;;;41.50;;
80115;SDS011;69423;47.608;19.366;2024-03-02T00:49:56;42.63;;;41.50;;
80115;SDS011;69423;47.608;19.366;2024-03-02T00:50:28;42.63;;;41.40;;
80115;SDS011;69423;47.608;19.366;2024-03-02T00:50:59;42.40;;;41.07;;
80115;SDS011;69423;47.608;19.366;2024-03-02T00:51:30;43.70;;;42.43;;
80115;SDS011;69423;47.608;19.366;2024-03-02T00:52:03;41.43;;;40.33;;
80115;SDS011;69423;47.608;19.366;2024-03-02T00:52:37;44.10;;;42.57;;
80115;SDS011;69423;47.608;19.366;2024-03-02T00:53:11;45.43;;;43.33;;
80115;SDS011;69423;47.608;19.366;2024-03-02T00:53:43;42.17;;;40.60;;
80115;SDS011;69423;47.608;19.366;2024-03-02T00:54:14;43.00;;;41.80;;
80115;SDS011;69423;47.608;19.366;2024-03-02T00:54:45;42.33;;;41.27;;
80115;SDS011;69423;47.608;19.366;2024-03-02T00:55:16;43.13;;;42.00;;
80115;SDS011;69423;47.608;19.366;2024-03-02T00:55:49;42.70;;;41.47;;
80115;SDS011;69423;47.608;19.366;2024-03-02T00:56:20;42.47;;;41.00;;
80115;SDS011;69423;47.608;19.366;2024-03-02T00:56:51;42.97;;;41.00;;
80115;SDS011;69423;47.608;19.366;2024-03-02T00:57:25;42.83;;;41.10;;
80115;SDS011;69423;47.608;19.366;2024-03-02T00:58:04;41.83;;;40.43;;
80115;SDS011;69423;47.608;19.366;2024-03-02T00:58:36;43.63;;;42.10;;
80115;SDS011;69423;47.608;19.366;2024-03-02T00:59:07;42.23;;;40.90;;
80115;SDS011;69423;47.608;19.366;2024-03-02T00:59:39;43.47;;;41.57;;
80115;SDS011;69423;47.608;19.366;2024-03-02T01:00:10;42.73;;;41.07;;
80115;SDS011;69423;47.608;19.366;2024-03-02T01:00:45;42.00;;;40.67;;
80115;SDS011;69423;47.608;19.366;2024-03-02T01:01:16;41.50;;;40.37;;
80115;SDS011;69423;47.608;19.366;2024-03-02T01:01:48;41.97;;;40.77;;
80115;SDS011;69423;47.608;19.366;2024-03-02T01:02:22;42.30;;;41.13;;
80115;SDS011;69423;47.608;19.366;2024-03-02T01:02:53;42.70;;;41.43;;
80115;SDS011;69423;47.608;19.366;2024-03-02T01:03:24;41.90;;;40.60;;
80115;SDS011;69423;47.608;19.366;2024-03-02T01:03:55;41.67;;;40.47;;
80115;SDS011;69423;47.608;19.366;2024-03-02T01:04:26;42.10;;;40.93;;
80115;SDS011;69423;47.608;19.366;2024-03-02T01:04:57;44.43;;;42.93;;
80115;SDS011;69423;47.608;19.366;2024-03-02T01:05:28;43.33;;;41.53;;
80115;SDS011;69423;47.608;19.366;2024-03-02T01:05:59;42.93;;;41.60;;
80115;SDS011;69423;47.608;19.366;2024-03-02T01:06:30;43.50;;;42.20;;
80115;SDS011;69423;47.608;19.366;2024-03-02T01:07:01;44.03;;;42.83;;
80115;SDS011;69423;47.608;19.366;2024-03-02T01:07:32;42.87;;;41.83;;
80115;SDS011;69423;47.608;19.366;2024-03-02T01:08:03;43.07;;;41.80;;
80115;SDS011;69423;47.608;19.366;2024-03-02T01:08:35;42.93;;;41.63;;
80115;SDS011;69423;47.608;19.366;2024-03-02T01:09:06;42.20;;;41.17;;
80115;SDS011;69423;47.608;19.366;2024-03-02T01:09:37;42.00;;;40.93;;
80115;SDS011;69423;47.608;19.366;2024-03-02T01:10:08;44.07;;;42.60;;
80115;SDS011;69423;47.608;19.366;2024-03-02T01:10:41;44.57;;;42.93;;
80115;SDS011;69423;47.608;19.366;2024-03-02T01:11:12;42.47;;;41.23;;
80115;SDS011;69423;47.608;19.366;2024-03-02T01:11:43;44.57;;;43.23;;
80115;SDS011;69423;47.608;19.366;2024-03-02T01:12:14;44.23;;;42.90;;
80115;SDS011;69423;47.608;19.366;2024-03-02T01:12:45;44.97;;;43.80;;
80115;SDS011;69423;47.608;19.366;2024-03-02T01:13:16;44.17;;;43.07;;
80115;SDS011;69423;47.608;19.366;2024-03-02T01:13:47;43.60;;;42.40;;
80115;SDS011;69423;47.608;19.366;2024-03-02T01:14:18;42.40;;;41.33;;
80115;SDS011;69423;47.608;19.366;2024-03-02T01:14:49;43.73;;;42.00;;
80115;SDS011;69423;47.608;19.366;2024-03-02T01:15:20;44.90;;;43.13;;
80115;SDS011;69423;47.608;19.366;2024-03-02T01:15:52;45.00;;;43.33;;
80115;SDS011;69423;47.608;19.366;2024-03-02T01:16:23;44.50;;;43.13;;
80115;SDS011;69423;47.608;19.366;2024-03-02T01:16:55;43.53;;;42.30;;
80115;SDS011;69423;47.608;19.366;2024-03-02T01:17:26;45.27;;;43.67;;
80115;SDS011;69423;47.608;19.366;2024-03-02T01:17:57;43.23;;;41.87;;
80115;SDS011;69423;47.608;19.366;2024-03-02T01:18:28;42.87;;;41.50;;
80115;SDS011;69423;47.608;19.366;2024-03-02T01:18:59;42.77;;;41.27;;
80115;SDS011;69423;47.608;19.366;2024-03-02T01:19:30;41.93;;;40.60;;
80115;SDS011;69423;47.608;19.366;2024-03-02T01:20:01;42.93;;;41.37;;
80115;SDS011;69423;47.608;19.366;2024-03-02T01:20:32;44.50;;;42.87;;
80115;SDS011;69423;47.608;19.366;2024-03-02T01:21:03;44.57;;;42.87;;
80115;SDS011;69423;47.608;19.366;2024-03-02T01:21:34;44.50;;;42.77;;
80115;SDS011;69423;47.608;19.366;2024-03-02T01:22:05;43.80;;;42.53;;
80115;SDS011;69423;47.608;19.366;2024-03-02T01:22:36;44.17;;;42.80;;
80115;SDS011;69423;47.608;19.366;2024-03-02T01:23:08;43.97;;;42.47;;
80115;SDS011;69423;47.608;19.366;2024-03-02T01:23:39;43.43;;;42.10;;
80115;SDS011;69423;47.608;19.366;2024-03-02T01:24:10;41.97;;;40.90;;
80115;SDS011;69423;47.608;19.366;2024-03-02T01:24:41;41.33;;;40.33;;
80115;SDS011;69423;47.608;19.366;2024-03-02T01:25:12;42.43;;;41.07;;
80115;SDS011;69423;47.608;19.366;2024-03-02T01:25:44;43.10;;;41.93;;
80115;SDS011;69423;47.608;19.366;2024-03-02T01:26:15;42.90;;;41.77;;
80115;SDS011;69423;47.608;19.366;2024-03-02T01:26:46;43.10;;;41.90;;
80115;SDS011;69423;47.608;19.366;2024-03-02T01:27:17;44.17;;;42.87;;
80115;SDS011;69423;47.608;19.366;2024-03-02T01:27:49;43.07;;;41.83;;
80115;SDS011;69423;47.608;19.366;2024-03-02T01:28:20;41.83;;;40.60;;
80115;SDS011;69423;47.608;19.366;2024-03-02T01:28:51;41.23;;;40.13;;
80115;SDS011;69423;47.608;19.366;2024-03-02T01:29:22;40.80;;;39.57;;
80115;SDS011;69423;47.608;19.366;2024-03-02T01:29:53;41.70;;;40.57;;
80115;SDS011;69423;47.608;19.366;2024-03-02T01:30:25;44.20;;;42.80;;
80115;SDS011;69423;47.608;19.366;2024-03-02T01:30:56;42.20;;;41.03;;
80115;SDS011;69423;47.608;19.366;2024-03-02T01:31:27;41.93;;;40.33;;
80115;SDS011;69423;47.608;19.366;2024-03-02T01:31:58;45.10;;;43.13;;
80115;SDS011;69423;47.608;19.366;2024-03-02T01:32:29;42.57;;;41.07;;
80115;SDS011;69423;47.608;19.366;2024-03-02T01:33:00;40.47;;;39.27;;
80115;SDS011;69423;47.608;19.366;2024-03-02T01:33:32;39.77;;;38.77;;
80115;SDS011;69423;47.608;19.366;2024-03-02T01:34:03;41.30;;;40.17;;
80115;SDS011;69423;47.608;19.366;2024-03-02T01:34:34;40.73;;;39.63;;
80115;SDS011;69423;47.608;19.366;2024-03-02T01:35:05;40.53;;;39.30;;
80115;SDS011;69423;47.608;19.366;2024-03-02T01:35:37;40.97;;;39.83;;
80115;SDS011;69423;47.608;19.366;2024-03-02T01:36:08;42.67;;;41.60;;
80115;SDS011;69423;47.608;19.366;2024-03-02T01:36:39;42.77;;;41.57;;
80115;SDS011;69423;47.608;19.366;2024-03-02T01:37:10;43.90;;;42.40;;
80115;SDS011;69423;47.608;19.366;2024-03-02T01:37:41;42.77;;;41.43;;
80115;SDS011;69423;47.608;19.366;2024-03-02T01:38:12;42.20;;;40.93;;
80115;SDS011;69423;47.608;19.366;2024-03-02T01:38:43;43.07;;;41.63;;
80115;SDS011;69423;47.608;19.366;2024-03-02T01:39:14;44.77;;;43.03;;
80115;SDS011;69423;47.608;19.366;2024-03-02T01:39:45;44.50;;;42.83;;
80115;SDS011;69423;47.608;19.366;2024-03-02T01:40:16;42.60;;;41.17;;
80115;SDS011;69423;47.608;19.366;2024-03-02T01:40:47;43.23;;;41.67;;
80115;SDS011;69423;47.608;19.366;2024-03-02T01:41:18;43.47;;;41.83;;
80115;SDS011;69423;47.608;19.366;2024-03-02T01:41:49;43.53;;;42.03;;
80115;SDS011;69423;47.608;19.366;2024-03-02T01:42:20;42.83;;;41.67;;
80115;SDS011;69423;47.608;19.366;2024-03-02T01:42:52;43.00;;;41.90;;
80115;SDS011;69423;47.608;19.366;2024-03-02T01:43:28;43.77;;;42.70;;
80115;SDS011;69423;47.608;19.366;2024-03-02T01:43:59;44.37;;;42.73;;
80115;SDS011;69423;47.608;19.366;2024-03-02T01:44:30;44.40;;;42.83;;
80115;SDS011;69423;47.608;19.366;2024-03-02T01:45:02;43.30;;;42.10;;
80115;SDS011;69423;47.608;19.366;2024-03-02T01:45:35;43.63;;;42.37;;
80115;SDS011;69423;47.608;19.366;2024-03-02T01:46:06;42.33;;;41.23;;
80115;SDS011;69423;47.608;19.366;2024-03-02T01:46:37;42.80;;;41.80;;
80115;SDS011;69423;47.608;19.366;2024-03-02T01:47:08;42.57;;;41.37;;
80115;SDS011;69423;47.608;19.366;2024-03-02T01:47:39;41.37;;;40.10;;
80115;SDS011;69423;47.608;19.366;2024-03-02T01:48:10;42.33;;;41.00;;
80115;SDS011;69423;47.608;19.366;2024-03-02T01:48:41;43.00;;;41.80;;
80115;SDS011;69423;47.608;19.366;2024-03-02T01:49:13;43.47;;;42.20;;
80115;SDS011;69423;47.608;19.366;2024-03-02T01:49:44;41.37;;;40.27;;
80115;SDS011;69423;47.608;19.366;2024-03-02T01:50:15;42.33;;;41.03;;
80115;SDS011;69423;47.608;19.366;2024-03-02T01:50:46;40.80;;;39.70;;
80115;SDS011;69423;47.608;19.366;2024-03-02T01:51:17;40.87;;;39.77;;
80115;SDS011;69423;47.608;19.366;2024-03-02T01:51:48;42.27;;;40.87;;
80115;SDS011;69423;47.608;19.366;2024-03-02T01:52:19;41.50;;;40.00;;
80115;SDS011;69423;47.608;19.366;2024-03-02T01:52:50;40.43;;;39.10;;
80115;SDS011;69423;47.608;19.366;2024-03-02T01:53:22;39.90;;;38.73;;
80115;SDS011;69423;47.608;19.366;2024-03-02T01:53:53;42.03;;;40.83;;
80115;SDS011;69423;47.608;19.366;2024-03-02T01:54:24;42.90;;;41.53;;
80115;SDS011;69423;47.608;19.366;2024-03-02T01:54:55;43.20;;;41.27;;
80115;SDS011;69423;47.608;19.366;2024-03-02T01:55:26;43.40;;;41.27;;
80115;SDS011;69423;47.608;19.366;2024-03-02T01:55:59;41.07;;;39.63;;
80115;SDS011;69423;47.608;19.366;2024-03-02T01:56:31;40.87;;;39.70;;
80115;SDS011;69423;47.608;19.366;2024-03-02T01:57:03;40.33;;;39.20;;
80115;SDS011;69423;47.608;19.366;2024-03-02T01:57:34;39.43;;;38.07;;
80115;SDS011;69423;47.608;19.366;2024-03-02T01:58:05;39.50;;;38.33;;
80115;SDS011;69423;47.608;19.366;2024-03-02T01:58:37;39.40;;;38.23;;
80115;SDS011;69423;47.608;19.366;2024-03-02T01:59:08;39.60;;;38.73;;
80115;SDS011;69423;47.608;19.366;2024-03-02T01:59:39;40.53;;;39.30;;
80115;SDS011;69423;47.608;19.366;2024-03-02T02:00:11;42.03;;;40.67;;
80115;SDS011;69423;47.608;19.366;2024-03-02T02:00:43;42.13;;;40.77;;
80115;SDS011;69423;47.608;19.366;2024-03-02T02:01:14;41.00;;;39.63;;
80115;SDS011;69423;47.608;19.366;2024-03-02T02:01:45;41.50;;;40.17;;
80115;SDS011;69423;47.608;19.366;2024-03-02T02:02:16;42.20;;;40.60;;
80115;SDS011;69423;47.608;19.366;2024-03-02T02:02:47;42.03;;;40.43;;
80115;SDS011;69423;47.608;19.366;2024-03-02T02:03:19;40.93;;;39.50;;
80115;SDS011;69423;47.608;19.366;2024-03-02T02:03:50;41.53;;;40.30;;
80115;SDS011;69423;47.608;19.366;2024-03-02T02:04:21;41.80;;;40.50;;
80115;SDS011;69423;47.608;19.366;2024-03-02T02:04:57;41.20;;;39.87;;
80115;SDS011;69423;47.608;19.366;2024-03-02T02:05:28;40.83;;;39.50;;
80115;SDS011;69423;47.608;19.366;2024-03-02T02:05:59;41.83;;;40.33;;
80115;SDS011;69423;47.608;19.366;2024-03-02T02:06:30;41.60;;;40.33;;
80115;SDS011;69423;47.608;19.366;2024-03-02T02:07:01;41.13;;;39.70;;
80115;SDS011;69423;47.608;19.366;2024-03-02T02:07:32;42.10;;;40.80;;
80115;SDS011;69423;47.608;19.366;2024-03-02T02:08:05;42.07;;;40.60;;
80115;SDS011;69423;47.608;19.366;2024-03-02T02:08:36;42.93;;;41.23;;
80115;SDS011;69423;47.608;19.366;2024-03-02T02:09:08;42.73;;;41.33;;
80115;SDS011;69423;47.608;19.366;2024-03-02T02:09:39;41.73;;;40.30;;
80115;SDS011;69423;47.608;19.366;2024-03-02T02:10:13;40.73;;;39.47;;
80115;SDS011;69423;47.608;19.366;2024-03-02T02:10:44;43.23;;;41.43;;
80115;SDS011;69423;47.608;19.366;2024-03-02T02:11:15;43.00;;;41.07;;
80115;SDS011;69423;47.608;19.366;2024-03-02T02:11:47;41.90;;;40.50;;
80115;SDS011;69423;47.608;19.366;2024-03-02T02:12:18;41.30;;;39.97;;
80115;SDS011;69423;47.608;19.366;2024-03-02T02:12:49;41.10;;;39.63;;
80115;SDS011;69423;47.608;19.366;2024-03-02T02:13:20;41.33;;;40.07;;
80115;SDS011;69423;47.608;19.366;2024-03-02T02:13:51;42.17;;;40.87;;
80115;SDS011;69423;47.608;19.366;2024-03-02T02:14:22;40.87;;;39.53;;
80115;SDS011;69423;47.608;19.366;2024-03-02T02:14:53;40.57;;;39.10;;
80115;SDS011;69423;47.608;19.366;2024-03-02T02:15:28;40.40;;;39.03;;
80115;SDS011;69423;47.608;19.366;2024-03-02T02:16:06;40.30;;;39.13;;
80115;SDS011;69423;47.608;19.366;2024-03-02T02:16:38;40.63;;;39.40;;
80115;SDS011;69423;47.608;19.366;2024-03-02T02:17:09;40.53;;;39.13;;
80115;SDS011;69423;47.608;19.366;2024-03-02T02:17:40;41.07;;;39.53;;
80115;SDS011;69423;47.608;19.366;2024-03-02T02:18:11;42.27;;;40.77;;
80115;SDS011;69423;47.608;19.366;2024-03-02T02:18:42;40.20;;;38.90;;
80115;SDS011;69423;47.608;19.366;2024-03-02T02:19:13;40.17;;;38.90;;
80115;SDS011;69423;47.608;19.366;2024-03-02T02:19:44;39.83;;;38.83;;
80115;SDS011;69423;47.608;19.366;2024-03-02T02:20:15;39.17;;;38.30;;
80115;SDS011;69423;47.608;19.366;2024-03-02T02:20:46;40.67;;;39.43;;
80115;SDS011;69423;47.608;19.366;2024-03-02T02:21:17;40.40;;;39.30;;
80115;SDS011;69423;47.608;19.366;2024-03-02T02:21:53;41.77;;;40.53;;
80115;SDS011;69423;47.608;19.366;2024-03-02T02:22:24;41.23;;;39.90;;
80115;SDS011;69423;47.608;19.366;2024-03-02T02:23:02;39.73;;;38.43;;
80115;SDS011;69423;47.608;19.366;2024-03-02T02:23:34;40.80;;;39.67;;
80115;SDS011;69423;47.608;19.366;2024-03-02T02:24:05;41.87;;;40.43;;
80115;SDS011;69423;47.608;19.366;2024-03-02T02:24:42;40.87;;;39.47;;
80115;SDS011;69423;47.608;19.366;2024-03-02T02:25:13;41.70;;;40.23;;
80115;SDS011;69423;47.608;19.366;2024-03-02T02:25:44;41.83;;;40.50;;
80115;SDS011;69423;47.608;19.366;2024-03-02T02:26:15;40.40;;;38.93;;
80115;SDS011;69423;47.608;19.366;2024-03-02T02:26:46;40.33;;;39.17;;
80115;SDS011;69423;47.608;19.366;2024-03-02T02:27:17;39.90;;;38.77;;
80115;SDS011;69423;47.608;19.366;2024-03-02T02:27:48;40.40;;;39.03;;
80115;SDS011;69423;47.608;19.366;2024-03-02T02:28:20;40.77;;;39.40;;
80115;SDS011;69423;47.608;19.366;2024-03-02T02:28:51;41.20;;;39.57;;
80115;SDS011;69423;47.608;19.366;2024-03-02T02:29:22;41.27;;;39.80;;
80115;SDS011;69423;47.608;19.366;2024-03-02T02:29:53;41.23;;;39.87;;
80115;SDS011;69423;47.608;19.366;2024-03-02T02:30:27;40.47;;;39.03;;
80115;SDS011;69423;47.608;19.366;2024-03-02T02:31:00;39.87;;;38.47;;
80115;SDS011;69423;47.608;19.366;2024-03-02T02:31:38;39.60;;;38.33;;
80115;SDS011;69423;47.608;19.366;2024-03-02T02:32:10;41.70;;;40.50;;
80115;SDS011;69423;47.608;19.366;2024-03-02T02:32:41;41.07;;;39.57;;
80115;SDS011;69423;47.608;19.366;2024-03-02T02:33:12;40.07;;;38.67;;
80115;SDS011;69423;47.608;19.366;2024-03-02T02:33:43;38.93;;;37.73;;
80115;SDS011;69423;47.608;19.366;2024-03-02T02:34:14;38.30;;;37.13;;
80115;SDS011;69423;47.608;19.366;2024-03-02T02:34:46;39.83;;;38.53;;
80115;SDS011;69423;47.608;19.366;2024-03-02T02:35:17;38.17;;;37.07;;
80115;SDS011;69423;47.608;19.366;2024-03-02T02:35:48;39.60;;;38.17;;
80115;SDS011;69423;47.608;19.366;2024-03-02T02:36:19;40.80;;;39.20;;
80115;SDS011;69423;47.608;19.366;2024-03-02T02:36:50;42.27;;;40.30;;
80115;SDS011;69423;47.608;19.366;2024-03-02T02:37:22;40.17;;;38.63;;
80115;SDS011;69423;47.608;19.366;2024-03-02T02:37:54;39.00;;;37.83;;
80115;SDS011;69423;47.608;19.366;2024-03-02T02:38:26;39.27;;;38.03;;
80115;SDS011;69423;47.608;19.366;2024-03-02T02:38:57;39.43;;;38.03;;
80115;SDS011;69423;47.608;19.366;2024-03-02T02:39:34;41.63;;;39.70;;
80115;SDS011;69423;47.608;19.366;2024-03-02T02:40:05;43.37;;;41.20;;
80115;SDS011;69423;47.608;19.366;2024-03-02T02:40:36;42.87;;;41.30;;
80115;SDS011;69423;47.608;19.366;2024-03-02T02:41:07;42.20;;;40.97;;
80115;SDS011;69423;47.608;19.366;2024-03-02T02:41:39;51.17;;;49.10;;
80115;SDS011;69423;47.608;19.366;2024-03-02T02:42:10;46.73;;;44.43;;
80115;SDS011;69423;47.608;19.366;2024-03-02T02:42:41;43.33;;;41.33;;
80115;SDS011;69423;47.608;19.366;2024-03-02T02:43:12;41.87;;;40.53;;
80115;SDS011;69423;47.608;19.366;2024-03-02T02:43:43;40.87;;;39.57;;
80115;SDS011;69423;47.608;19.366;2024-03-02T02:44:14;42.33;;;40.60;;
80115;SDS011;69423;47.608;19.366;2024-03-02T02:44:45;41.93;;;40.30;;
80115;SDS011;69423;47.608;19.366;2024-03-02T02:45:16;41.73;;;40.03;;
80115;SDS011;69423;47.608;19.366;2024-03-02T02:45:47;41.53;;;39.83;;
80115;SDS011;69423;47.608;19.366;2024-03-02T02:46:18;42.73;;;41.07;;
80115;SDS011;69423;47.608;19.366;2024-03-02T02:46:50;43.73;;;41.90;;
80115;SDS011;69423;47.608;19.366;2024-03-02T02:47:21;43.20;;;40.97;;
80115;SDS011;69423;47.608;19.366;2024-03-02T02:47:52;42.47;;;40.70;;
80115;SDS011;69423;47.608;19.366;2024-03-02T02:48:23;43.60;;;41.83;;
80115;SDS011;69423;47.608;19.366;2024-03-02T02:48:54;44.83;;;42.90;;
80115;SDS011;69423;47.608;19.366;2024-03-02T02:49:25;46.87;;;45.07;;
80115;SDS011;69423;47.608;19.366;2024-03-02T02:49:56;44.70;;;43.13;;
80115;SDS011;69423;47.608;19.366;2024-03-02T02:50:27;44.63;;;43.27;;
80115;SDS011;69423;47.608;19.366;2024-03-02T02:50:58;42.33;;;40.73;;
80115;SDS011;69423;47.608;19.366;2024-03-02T02:51:29;41.90;;;40.20;;
80115;SDS011;69423;47.608;19.366;2024-03-02T02:52:00;42.70;;;40.93;;
80115;SDS011;69423;47.608;19.366;2024-03-02T02:52:32;42.23;;;40.77;;
80115;SDS011;69423;47.608;19.366;2024-03-02T02:53:07;43.57;;;42.17;;
80115;SDS011;69423;47.608;19.366;2024-03-02T02:53:40;49.10;;;47.20;;
80115;SDS011;69423;47.608;19.366;2024-03-02T02:54:11;47.07;;;44.93;;
80115;SDS011;69423;47.608;19.366;2024-03-02T02:54:42;44.97;;;43.20;;
80115;SDS011;69423;47.608;19.366;2024-03-02T02:55:13;43.70;;;42.10;;
80115;SDS011;69423;47.608;19.366;2024-03-02T02:55:46;42.37;;;40.80;;
80115;SDS011;69423;47.608;19.366;2024-03-02T02:56:17;44.50;;;42.43;;
80115;SDS011;69423;47.608;19.366;2024-03-02T02:56:48;41.70;;;39.93;;
80115;SDS011;69423;47.608;19.366;2024-03-02T02:57:19;40.47;;;39.23;;
80115;SDS011;69423;47.608;19.366;2024-03-02T02:57:50;39.10;;;37.90;;
80115;SDS011;69423;47.608;19.366;2024-03-02T02:58:21;39.17;;;38.03;;
80115;SDS011;69423;47.608;19.366;2024-03-02T02:58:52;39.83;;;38.43;;
80115;SDS011;69423;47.608;19.366;2024-03-02T02:59:23;39.57;;;38.13;;
80115;SDS011;69423;47.608;19.366;2024-03-02T02:59:54;39.00;;;37.47;;
80115;SDS011;69423;47.608;19.366;2024-03-02T03:00:25;38.97;;;37.13;;
80115;SDS011;69423;47.608;19.366;2024-03-02T03:00:56;39.43;;;37.57;;
80115;SDS011;69423;47.608;19.366;2024-03-02T03:01:27;39.77;;;38.07;;
80115;SDS011;69423;47.608;19.366;2024-03-02T03:01:58;40.43;;;38.97;;
80115;SDS011;69423;47.608;19.366;2024-03-02T03:02:29;39.13;;;37.83;;
80115;SDS011;69423;47.608;19.366;2024-03-02T03:03:00;39.23;;;37.73;;
80115;SDS011;69423;47.608;19.366;2024-03-02T03:03:31;39.27;;;37.93;;
80115;SDS011;69423;47.608;19.366;2024-03-02T03:04:02;39.37;;;38.07;;
80115;SDS011;69423;47.608;19.366;2024-03-02T03:04:33;39.30;;;37.97;;
80115;SDS011;69423;47.608;19.366;2024-03-02T03:05:05;40.03;;;38.53;;
80115;SDS011;69423;47.608;19.366;2024-03-02T03:05:37;40.03;;;38.23;;